Time;durP1;ratioP1;P1;durP2;ratioP2;P2;SDS_P1;SDS_P2;PMS_P1;PMS_P2;Temp;Humidity;BMP_temperature;BMP_pressure;BME280_temperature;BME280_humidity;BME280_pressure;Samples;Min_cycle;Max_cycle;Signal;HPM_P1;HPM_P2
2022/04/10 00:00:24;;;;;;;2.85;0.40;;;22.70;75.70;;;;;;5089233;23;20029;-61
2022/04/10 00:02:27;;;;;;;2.47;0.80;;;22.70;75.90;;;;;;5088482;23;20698;-61
2022/04/10 00:04:29;;;;;;;3.38;0.55;;;22.70;75.80;;;;;;5087056;23;20099;-61
2022/04/10 00:06:31;;;;;;;1.67;0.40;;;22.60;75.70;;;;;;5083915;23;20083;-61
2022/04/10 00:08:34;;;;;;;0.85;0.50;;;22.70;75.70;;;;;;5086937;23;20056;-61
2022/04/10 00:10:37;;;;;;;0.95;0.30;;;22.60;75.70;;;;;;5063162;23;20057;-61
2022/04/10 00:12:39;;;;;;;0.53;0.40;;;22.70;75.80;;;;;;5084602;23;20028;-61
2022/04/10 00:14:41;;;;;;;0.85;0.30;;;22.70;75.70;;;;;;5084872;23;20028;-62
2022/04/10 00:16:44;;;;;;;1.65;0.43;;;22.60;75.70;;;;;;5084298;23;20111;-61
2022/04/10 00:18:46;;;;;;;1.48;0.40;;;22.60;75.60;;;;;;5084072;23;20090;-61
2022/04/10 00:20:48;;;;;;;1.48;0.70;;;22.70;75.70;;;;;;5083713;23;20128;-61
2022/04/10 00:22:51;;;;;;;4.07;0.77;;;22.60;75.60;;;;;;5084695;23;20029;-61
2022/04/10 00:24:54;;;;;;;4.20;0.70;;;22.60;75.70;;;;;;5086613;23;20079;-61
2022/04/10 00:26:56;;;;;;;1.55;0.68;;;22.70;76.10;;;;;;5088391;23;20131;-59
2022/04/10 00:28:58;;;;;;;2.08;0.63;;;22.70;76.30;;;;;;5084601;23;20099;-62
2022/04/10 00:31:04;;;;;;;13.90;0.98;;;22.70;76.50;;;;;;5081369;23;20020;-60
2022/04/10 00:33:06;;;;;;;1.52;0.50;;;22.70;76.60;;;;;;5077455;23;20036;-59
2022/04/10 00:35:10;;;;;;;1.15;0.82;;;22.70;76.60;;;;;;5072137;23;20429;-61
2022/04/10 00:37:12;;;;;;;1.65;0.47;;;22.80;76.60;;;;;;5073562;23;20029;-61
2022/04/10 00:39:14;;;;;;;0.82;0.35;;;22.80;76.60;;;;;;5074083;23;20255;-61
2022/04/10 00:41:16;;;;;;;2.35;0.70;;;22.90;76.60;;;;;;5077292;23;20047;-61
2022/04/10 00:43:19;;;;;;;2.25;0.63;;;22.90;76.60;;;;;;5072122;23;20140;-61
2022/04/10 00:45:21;;;;;;;0.85;0.60;;;22.90;76.50;;;;;;5072567;23;20756;-62
2022/04/10 00:47:23;;;;;;;2.97;0.47;;;23.00;76.50;;;;;;5075923;23;20037;-61
2022/04/10 00:49:25;;;;;;;1.60;0.80;;;23.00;76.40;;;;;;5073925;23;20795;-60
2022/04/10 00:51:41;;;;;;;2.55;0.75;;;23.00;76.20;;;;;;5069024;23;20335;-61
2022/04/10 00:53:43;;;;;;;3.78;0.63;;;23.00;76.10;;;;;;5066620;23;20028;-61
2022/04/10 00:55:45;;;;;;;1.23;0.60;;;23.10;76.00;;;;;;5068410;23;20028;-61
2022/04/10 00:57:48;;;;;;;1.02;0.63;;;23.10;75.90;;;;;;5048476;23;20950;-61
2022/04/10 00:59:50;;;;;;;1.17;0.75;;;23.10;75.80;;;;;;5068733;23;20539;-61
2022/04/10 01:01:53;;;;;;;0.63;0.40;;;23.10;75.70;;;;;;5067666;23;20740;-60
2022/04/10 01:03:55;;;;;;;1.10;0.63;;;23.10;75.70;;;;;;5070191;23;20638;-60
2022/04/10 01:05:57;;;;;;;0.83;0.50;;;23.10;76.50;;;;;;5046921;23;20820;-61
2022/04/10 01:07:59;;;;;;;2.17;0.50;;;23.20;75.90;;;;;;5068867;23;20275;-61
2022/04/10 01:10:02;;;;;;;2.75;0.30;;;23.20;76.00;;;;;;5067084;23;20094;-60
2022/04/10 01:12:05;;;;;;;0.80;0.50;;;23.20;75.90;;;;;;5071892;23;20361;-62
2022/04/10 01:14:08;;;;;;;;;;;23.30;75.90;;;;;;5071000;23;20036;-62
2022/04/10 01:16:10;;;;;;;1.35;0.73;;;23.30;75.90;;;;;;5039922;23;20371;-61
2022/04/10 01:18:12;;;;;;;1.08;0.38;;;23.30;75.90;;;;;;5066532;23;20028;-62
2022/04/10 01:20:14;;;;;;;1.50;0.40;;;23.30;75.80;;;;;;5072675;23;20032;-61
2022/04/10 01:22:28;;;;;;;4.70;0.88;;;23.40;75.70;;;;;;5040524;23;20025;-58
2022/04/10 01:24:34;;;;;;;1.25;0.60;;;23.40;75.40;;;;;;5069458;23;20031;-62
2022/04/10 01:26:36;;;;;;;2.47;0.90;;;23.40;75.40;;;;;;5067759;23;20025;-61
2022/04/10 01:29:02;;;;;;;3.95;0.47;;;23.40;75.50;;;;;;5069338;23;20579;-67
2022/04/10 01:31:04;;;;;;;12.82;2.25;;;23.50;75.40;;;;;;5044815;23;20065;-61
2022/04/10 01:33:06;;;;;;;17.73;2.28;;;23.50;75.30;;;;;;5069586;23;20025;-63
2022/04/10 01:35:10;;;;;;;12.32;2.20;;;23.50;75.40;;;;;;5074912;23;20437;-62
2022/04/10 01:37:15;;;;;;;7.53;1.42;;;23.50;75.20;;;;;;5048821;23;20084;-61
2022/04/10 01:39:18;;;;;;;6.00;1.27;;;23.50;75.00;;;;;;5067321;23;20059;-62
2022/04/10 01:41:20;;;;;;;4.57;0.93;;;23.60;75.00;;;;;;5070304;23;20091;-62
2022/04/10 01:43:22;;;;;;;1.90;0.70;;;23.60;74.80;;;;;;5049716;23;20041;-63
2022/04/10 01:45:24;;;;;;;4.97;1.33;;;23.60;74.80;;;;;;5067651;23;20021;-63
2022/04/10 01:47:27;;;;;;;4.18;1.00;;;23.60;74.70;;;;;;5067241;23;20033;-62
2022/04/10 01:49:29;;;;;;;1.30;0.70;;;23.60;74.60;;;;;;5070564;23;20110;-63
2022/04/10 01:51:31;;;;;;;3.15;0.70;;;23.60;74.50;;;;;;5075813;23;20035;-62
2022/04/10 01:53:34;;;;;;;4.17;1.07;;;23.60;74.50;;;;;;5068659;23;20135;-62
2022/04/10 01:55:36;;;;;;;1.80;0.60;;;23.60;74.50;;;;;;5067020;23;20028;-62
2022/04/10 01:57:38;;;;;;;1.40;0.55;;;23.60;74.40;;;;;;5072280;23;20364;-62
2022/04/10 01:59:40;;;;;;;1.75;0.47;;;23.60;74.30;;;;;;5070442;23;20919;-62
2022/04/10 02:01:43;;;;;;;1.02;0.63;;;23.60;74.20;;;;;;5042791;23;20025;-63
2022/04/10 02:03:50;;;;;;;1.63;0.70;;;23.60;74.20;;;;;;5068098;23;20080;-62
2022/04/10 02:05:52;;;;;;;2.15;0.55;;;23.60;74.20;;;;;;5071751;23;20029;-63
2022/04/10 02:07:55;;;;;;;1.85;0.50;;;23.60;74.10;;;;;;5069909;23;20040;-62
2022/04/10 02:09:57;;;;;;;1.77;0.90;;;23.60;74.10;;;;;;5067535;23;20040;-62
2022/04/10 02:11:59;;;;;;;1.35;0.73;;;23.60;74.10;;;;;;5068663;23;20029;-63
2022/04/10 02:14:02;;;;;;;1.33;0.68;;;23.70;74.10;;;;;;5047173;23;20040;-62
2022/04/10 02:16:05;;;;;;;2.20;0.57;;;23.70;74.00;;;;;;5041367;23;20369;-63
2022/04/10 02:18:08;;;;;;;1.02;0.63;;;23.70;74.00;;;;;;5069314;23;20028;-63
2022/04/10 02:20:11;;;;;;;1.10;0.47;;;23.70;74.00;;;;;;5046915;23;20041;-63
2022/04/10 02:22:13;;;;;;;1.10;0.80;;;23.70;73.90;;;;;;5074889;23;20384;-62
2022/04/10 02:24:15;;;;;;;0.73;0.50;;;23.70;73.90;;;;;;5069876;23;20073;-62
2022/04/10 02:26:18;;;;;;;2.28;0.75;;;23.70;73.80;;;;;;5071289;23;20031;-63
2022/04/10 02:28:20;;;;;;;1.53;0.50;;;23.70;73.80;;;;;;5050613;23;20096;-62
2022/04/10 02:30:22;;;;;;;2.35;0.75;;;23.70;73.80;;;;;;5069878;23;20228;-63
2022/04/10 02:32:24;;;;;;;0.80;0.60;;;23.80;73.80;;;;;;5044830;23;20051;-62
2022/04/10 02:34:27;;;;;;;1.27;0.52;;;23.80;73.80;;;;;;5046987;23;20036;-63
2022/04/10 02:36:29;;;;;;;1.43;0.60;;;23.80;73.80;;;;;;5047312;23;20044;-63
2022/04/10 02:38:31;;;;;;;0.63;0.60;;;23.80;73.70;;;;;;5071714;23;20123;-64
2022/04/10 02:40:34;;;;;;;1.08;0.47;;;23.80;73.70;;;;;;5046361;23;20109;-64
2022/04/10 02:42:36;;;;;;;0.52;0.52;;;23.80;73.70;;;;;;5079517;23;20024;-63
2022/04/10 02:44:38;;;;;;;1.13;0.85;;;23.80;73.70;;;;;;5046355;23;20498;-63
2022/04/10 02:46:41;;;;;;;1.08;0.45;;;23.80;73.70;;;;;;5044531;23;20973;-64
2022/04/10 02:48:46;;;;;;;1.00;0.47;;;23.80;73.60;;;;;;5073714;23;20095;-61
2022/04/10 02:50:50;;;;;;;1.65;0.65;;;23.80;73.70;;;;;;5078749;23;20029;-63
2022/04/10 02:52:52;;;;;;;0.95;0.50;;;23.80;73.60;;;;;;5072947;23;20948;-63
2022/04/10 02:54:56;;;;;;;0.82;0.63;;;23.90;73.70;;;;;;5074927;23;20127;-63
2022/04/10 02:56:58;;;;;;;1.33;0.70;;;23.80;73.60;;;;;;5073266;23;20051;-62
2022/04/10 02:59:00;;;;;;;1.25;0.70;;;23.90;73.70;;;;;;5051099;23;20033;-64
2022/04/10 03:01:03;;;;;;;0.50;0.50;;;23.90;73.60;;;;;;5073401;23;20112;-62
2022/04/10 03:03:05;;;;;;;0.40;0.40;;;23.90;73.60;;;;;;5076199;23;20287;-63
2022/04/10 03:05:10;;;;;;;0.50;0.50;;;23.90;73.50;;;;;;5079962;23;20033;-63
2022/04/10 03:07:13;;;;;;;0.55;0.52;;;23.90;73.50;;;;;;5077205;23;20099;-63
2022/04/10 03:09:15;;;;;;;1.02;0.50;;;23.90;73.50;;;;;;5071738;23;20053;-61
2022/04/10 03:11:18;;;;;;;0.40;0.40;;;24.00;73.50;;;;;;5072513;23;20029;-63
2022/04/10 03:13:20;;;;;;;0.90;0.50;;;23.90;73.50;;;;;;5078835;23;20029;-61
2022/04/10 03:15:22;;;;;;;0.52;0.40;;;24.00;73.50;;;;;;5072848;23;21069;-61
2022/04/10 03:17:25;;;;;;;0.40;0.40;;;23.90;73.40;;;;;;5071867;23;20039;-62
2022/04/10 03:19:28;;;;;;;1.03;0.70;;;24.00;73.50;;;;;;5080077;23;20087;-62
2022/04/10 03:21:31;;;;;;;1.13;0.50;;;24.00;73.80;;;;;;5083077;23;20033;-62
2022/04/10 03:23:33;;;;;;;0.93;0.57;;;24.00;73.40;;;;;;5075048;23;20055;-62
2022/04/10 03:25:38;;;;;;;1.13;0.50;;;24.00;73.40;;;;;;5073384;23;20021;-62
2022/04/10 03:27:40;;;;;;;0.50;0.45;;;24.00;73.40;;;;;;5079161;23;20028;-62
2022/04/10 03:29:42;;;;;;;1.03;0.50;;;24.00;73.40;;;;;;5079132;23;20027;-61
2022/04/10 03:31:45;;;;;;;1.02;0.60;;;24.00;73.40;;;;;;5076701;23;20742;-62
2022/04/10 03:33:48;;;;;;;0.80;0.55;;;24.00;73.40;;;;;;5076483;23;20143;-62
2022/04/10 03:35:50;;;;;;;0.70;0.63;;;24.00;73.40;;;;;;5081432;23;20449;-62
2022/04/10 03:37:52;;;;;;;0.60;0.60;;;24.00;73.40;;;;;;5074054;23;20025;-62
2022/04/10 03:39:54;;;;;;;1.00;0.50;;;24.00;73.40;;;;;;5073992;23;20124;-62
2022/04/10 03:41:57;;;;;;;0.50;0.40;;;24.00;73.40;;;;;;5079068;23;20245;-62
2022/04/10 03:43:59;;;;;;;0.40;0.40;;;24.00;73.40;;;;;;5082262;23;20033;-62
2022/04/10 03:46:01;;;;;;;0.40;0.40;;;24.10;73.40;;;;;;5077586;23;20112;-62
2022/04/10 03:48:04;;;;;;;0.93;0.70;;;24.00;73.40;;;;;;5075390;23;20488;-62
2022/04/10 03:50:07;;;;;;;0.90;0.60;;;24.10;73.40;;;;;;5082278;23;20032;-62
2022/04/10 03:52:09;;;;;;;0.90;0.55;;;24.10;73.40;;;;;;5079346;23;20040;-62
2022/04/10 03:54:11;;;;;;;0.63;0.55;;;24.10;73.40;;;;;;5078217;23;20040;-62
2022/04/10 03:56:14;;;;;;;0.40;0.40;;;24.00;73.40;;;;;;5081426;23;20032;-63
2022/04/10 03:58:16;;;;;;;0.60;0.40;;;24.00;73.30;;;;;;5034060;23;20092;-63
2022/04/10 04:00:22;;;;;;;0.68;0.68;;;24.10;73.40;;;;;;5077847;23;20365;-63
2022/04/10 04:02:24;;;;;;;0.45;0.45;;;24.10;73.40;;;;;;5081179;23;20297;-63
2022/04/10 04:04:26;;;;;;;1.02;0.50;;;24.10;73.40;;;;;;5085016;23;20345;-63
2022/04/10 04:06:34;;;;;;;0.75;0.50;;;24.00;73.30;;;;;;5091314;23;20847;-62
2022/04/10 04:08:40;;;;;;;0.60;0.50;;;24.10;73.40;;;;;;5083837;23;20025;-62
2022/04/10 04:10:42;;;;;;;0.50;0.32;;;24.10;73.40;;;;;;5081377;23;20029;-63
2022/04/10 04:12:45;;;;;;;1.00;0.80;;;24.10;73.30;;;;;;5076038;23;20405;-62
2022/04/10 04:14:48;;;;;;;1.33;0.50;;;24.10;73.30;;;;;;5086996;23;20102;-64
2022/04/10 04:16:50;;;;;;;0.90;0.50;;;24.10;73.40;;;;;;5091218;23;20074;-62
2022/04/10 04:18:52;;;;;;;1.35;0.55;;;24.10;73.30;;;;;;5088845;23;20067;-62
2022/04/10 04:20:55;;;;;;;1.27;0.70;;;24.10;73.30;;;;;;5091480;23;20040;-62
2022/04/10 04:22:58;;;;;;;0.40;0.30;;;24.10;73.30;;;;;;5065907;23;20025;-64
2022/04/10 04:25:01;;;;;;;2.30;1.02;;;24.10;73.30;;;;;;5084520;23;20768;-62
2022/04/10 04:27:04;;;;;;;1.10;0.60;;;24.10;72.80;;;;;;5088413;23;20075;-61
2022/04/10 04:29:06;;;;;;;0.95;0.60;;;24.20;73.30;;;;;;5087079;23;20028;-62
2022/04/10 04:31:08;;;;;;;0.80;0.53;;;24.10;73.90;;;;;;5084984;23;20025;-62
2022/04/10 04:33:11;;;;;;;1.30;0.47;;;24.20;73.40;;;;;;5086065;23;20087;-62
2022/04/10 04:35:15;;;;;;;0.98;0.60;;;24.20;73.20;;;;;;5059438;23;20127;-65
2022/04/10 04:37:18;;;;;;;1.23;0.63;;;24.20;73.20;;;;;;5080903;23;21055;-64
2022/04/10 04:39:21;;;;;;;0.75;0.60;;;24.20;73.20;;;;;;5075445;23;20036;-64
2022/04/10 04:41:23;;;;;;;1.42;0.77;;;24.20;73.10;;;;;;5047836;23;20382;-62
2022/04/10 04:43:25;;;;;;;1.15;0.77;;;24.30;73.20;;;;;;5079797;23;20063;-64
2022/04/10 04:45:28;;;;;;;2.13;1.00;;;24.30;73.10;;;;;;5075022;23;20131;-65
2022/04/10 04:47:31;;;;;;;1.17;0.70;;;24.30;73.10;;;;;;5047971;23;20033;-64
2022/04/10 04:49:33;;;;;;;1.05;0.57;;;24.30;73.00;;;;;;5074280;23;20420;-65
2022/04/10 04:51:37;;;;;;;2.10;0.80;;;24.40;73.00;;;;;;5080478;23;20504;-65
2022/04/10 04:53:39;;;;;;;1.15;0.73;;;24.50;72.90;;;;;;5048505;23;20029;-64
2022/04/10 04:55:42;;;;;;;2.20;0.90;;;24.50;72.80;;;;;;5071560;23;20025;-65
2022/04/10 04:57:44;;;;;;;1.02;0.65;;;24.60;72.70;;;;;;5073757;23;20060;-65
2022/04/10 04:59:46;;;;;;;1.88;0.73;;;24.60;72.70;;;;;;5073286;23;20116;-65
2022/04/10 05:01:48;;;;;;;0.65;0.50;;;24.70;72.50;;;;;;5070130;23;20112;-64
2022/04/10 05:03:50;;;;;;;1.70;0.77;;;24.70;72.30;;;;;;5073398;23;20029;-64
2022/04/10 05:05:53;;;;;;;1.50;0.90;;;24.80;72.20;;;;;;5076747;23;20079;-65
2022/04/10 05:07:55;;;;;;;1.23;0.70;;;24.80;72.10;;;;;;5072513;23;20024;-65
2022/04/10 05:09:58;;;;;;;1.30;0.77;;;24.80;72.00;;;;;;5069907;23;20033;-65
2022/04/10 05:12:00;;;;;;;1.43;0.90;;;24.80;72.00;;;;;;5071266;23;20025;-64
2022/04/10 05:14:04;;;;;;;1.63;0.95;;;24.80;71.90;;;;;;5047280;23;20724;-66
2022/04/10 05:16:06;;;;;;;1.83;0.90;;;24.80;71.90;;;;;;5044160;23;20401;-65
2022/04/10 05:18:09;;;;;;;2.22;0.93;;;24.80;71.90;;;;;;5068902;23;20705;-64
2022/04/10 05:20:12;;;;;;;1.13;0.73;;;24.90;72.00;;;;;;5080029;23;20350;-65
2022/04/10 05:22:14;;;;;;;1.48;0.77;;;24.90;72.00;;;;;;5052329;23;20832;-65
2022/04/10 05:24:16;;;;;;;1.08;0.50;;;24.90;71.90;;;;;;5048055;23;20092;-64
2022/04/10 05:26:19;;;;;;;1.95;0.63;;;25.00;71.80;;;;;;5073529;23;20029;-65
2022/04/10 05:28:22;;;;;;;0.70;0.70;;;25.00;71.90;;;;;;5081287;23;20039;-65
2022/04/10 05:30:24;;;;;;;1.20;0.73;;;25.00;71.70;;;;;;5074409;23;20025;-64
2022/04/10 05:32:26;;;;;;;0.75;0.55;;;25.10;71.70;;;;;;5051380;23;20401;-65
2022/04/10 05:34:28;;;;;;;0.90;0.50;;;25.10;71.60;;;;;;5081839;23;20040;-65
2022/04/10 05:36:31;;;;;;;1.23;0.80;;;25.10;71.50;;;;;;5053245;23;20801;-65
2022/04/10 05:38:33;;;;;;;1.70;0.93;;;25.20;71.50;;;;;;5072377;23;20049;-65
2022/04/10 05:40:35;;;;;;;1.23;0.60;;;25.20;71.50;;;;;;5075391;23;20532;-65
2022/04/10 05:42:44;;;;;;;1.83;0.80;;;25.20;71.30;;;;;;5057221;23;20517;-65
2022/04/10 05:44:46;;;;;;;1.65;0.50;;;25.30;71.30;;;;;;5080086;23;20033;-65
2022/04/10 05:46:49;;;;;;;0.77;0.60;;;25.30;71.20;;;;;;5046934;23;20132;-64
2022/04/10 05:48:51;;;;;;;1.17;0.60;;;25.40;71.30;;;;;;5076959;23;20032;-63
2022/04/10 05:50:53;;;;;;;1.17;0.70;;;25.40;71.20;;;;;;5082434;23;20175;-63
2022/04/10 05:52:55;;;;;;;0.82;0.70;;;25.40;71.20;;;;;;5076307;23;20843;-63
2022/04/10 05:55:00;;;;;;;1.80;0.73;;;25.40;71.10;;;;;;5075827;23;20029;-65
2022/04/10 05:57:03;;;;;;;1.02;0.60;;;25.40;71.00;;;;;;5076160;23;20272;-64
2022/04/10 05:59:05;;;;;;;1.55;1.00;;;25.40;71.10;;;;;;5083091;23;20024;-63
2022/04/10 06:01:07;;;;;;;1.35;0.85;;;25.50;71.10;;;;;;5076017;23;20032;-64
2022/04/10 06:03:09;;;;;;;3.80;0.90;;;25.50;71.00;;;;;;5076517;23;20068;-65
2022/04/10 06:05:11;;;;;;;0.93;0.63;;;25.50;71.00;;;;;;5080329;23;20040;-66
2022/04/10 06:07:14;;;;;;;2.08;0.77;;;25.50;70.90;;;;;;5078946;23;20032;-66
2022/04/10 06:09:16;;;;;;;1.70;0.83;;;25.50;70.80;;;;;;5049254;23;20034;-66
2022/04/10 06:11:19;;;;;;;1.03;0.77;;;25.50;70.80;;;;;;5076738;23;20124;-66
2022/04/10 06:13:21;;;;;;;0.68;0.55;;;25.60;70.80;;;;;;5081527;23;20639;-64
2022/04/10 06:15:23;;;;;;;0.60;0.60;;;25.60;70.70;;;;;;5073976;23;20052;-65
2022/04/10 06:17:25;;;;;;;2.63;0.90;;;25.60;70.70;;;;;;5076194;23;20100;-65
2022/04/10 06:19:27;;;;;;;1.25;0.88;;;25.60;70.70;;;;;;5051605;23;20115;-65
2022/04/10 06:21:29;;;;;;;1.35;0.75;;;25.60;70.60;;;;;;5077146;23;20890;-65
2022/04/10 06:23:32;;;;;;;1.10;0.80;;;25.60;70.60;;;;;;5068008;23;20033;-64
2022/04/10 06:25:34;;;;;;;1.23;0.82;;;25.60;70.60;;;;;;5069105;23;20259;-64
2022/04/10 06:27:36;;;;;;;2.77;1.10;;;25.60;70.60;;;;;;5075804;23;20032;-66
2022/04/10 06:29:40;;;;;;;1.40;1.00;;;25.70;70.60;;;;;;5068558;23;20029;-66
2022/04/10 06:31:43;;;;;;;3.40;1.15;;;25.70;70.60;;;;;;5069523;23;20958;-65
2022/04/10 06:33:45;;;;;;;1.35;0.80;;;25.70;70.60;;;;;;5071155;23;20051;-65
2022/04/10 06:35:47;;;;;;;2.53;0.82;;;25.70;70.50;;;;;;5071335;23;20033;-65
2022/04/10 06:37:49;;;;;;;1.63;0.93;;;25.70;70.50;;;;;;5042593;23;20034;-65
2022/04/10 06:39:52;;;;;;;1.52;0.88;;;25.70;70.60;;;;;;5066528;23;20110;-66
2022/04/10 06:41:54;;;;;;;1.67;1.00;;;25.70;70.50;;;;;;5072036;23;20773;-67
2022/04/10 06:43:56;;;;;;;0.90;0.77;;;25.70;70.50;;;;;;5069046;23;20029;-65
2022/04/10 06:45:59;;;;;;;2.17;0.90;;;25.70;70.50;;;;;;5070197;23;20103;-67
2022/04/10 06:48:02;;;;;;;1.38;0.95;;;25.70;70.50;;;;;;5046748;23;20041;-69
2022/04/10 06:50:05;;;;;;;1.60;1.13;;;25.70;70.50;;;;;;5048684;23;20405;-66
2022/04/10 06:52:07;;;;;;;1.25;1.05;;;25.70;70.50;;;;;;5046305;23;20040;-65
2022/04/10 06:54:09;;;;;;;3.42;1.10;;;25.70;70.50;;;;;;5067396;23;20798;-68
2022/04/10 06:56:12;;;;;;;2.53;1.20;;;25.70;70.40;;;;;;5044965;23;20459;-66
2022/04/10 06:58:19;;;;;;;2.28;1.00;;;25.70;70.40;;;;;;5072766;23;20021;-67
2022/04/10 07:00:22;;;;;;;1.25;0.93;;;25.70;70.40;;;;;;5069664;23;20137;-66
2022/04/10 07:02:27;;;;;;;1.67;0.90;;;25.70;70.30;;;;;;5070594;23;20033;-66
2022/04/10 07:04:33;;;;;;;2.38;1.30;;;25.80;70.30;;;;;;5045002;23;20036;-66
2022/04/10 07:06:47;;;;;;;2.17;1.08;;;25.70;70.20;;;;;;5074779;23;20351;-66
2022/04/10 07:08:50;;;;;;;1.83;1.33;;;25.80;70.40;;;;;;5050754;23;20603;-65
2022/04/10 07:10:52;;;;;;;2.65;1.00;;;25.70;70.30;;;;;;5074790;23;20025;-65
2022/04/10 07:12:54;;;;;;;1.57;1.10;;;25.70;70.40;;;;;;5049631;23;20037;-65
2022/04/10 07:15:01;;;;;;;2.90;1.40;;;25.70;70.30;;;;;;5078323;23;20468;-65
2022/04/10 07:17:08;;;;;;;1.35;0.80;;;25.70;70.40;;;;;;5081648;23;20797;-65
2022/04/10 07:19:10;;;;;;;2.83;1.10;;;25.70;70.40;;;;;;5078659;23;20803;-66
2022/04/10 07:21:12;;;;;;;1.40;1.00;;;25.70;70.50;;;;;;5076287;23;20102;-65
2022/04/10 07:25:35;;;;;;;2.75;1.40;;;25.60;70.60;;;;;;5074692;23;20024;-65
2022/04/10 07:27:37;;;;;;;1.73;1.30;;;25.60;70.70;;;;;;5072184;23;20396;-66
2022/04/10 07:29:43;;;;;;;1.58;1.30;;;25.50;70.70;;;;;;5053736;23;20734;-65
2022/04/10 07:31:45;;;;;;;1.83;1.25;;;25.60;70.80;;;;;;5078904;23;20572;-64
2022/04/10 07:33:47;;;;;;;2.15;1.42;;;25.50;70.80;;;;;;5076382;23;20086;-65
2022/04/10 07:35:49;;;;;;;3.85;1.45;;;25.50;70.70;;;;;;5075754;23;20033;-65
2022/04/10 07:37:51;;;;;;;2.10;1.20;;;25.50;70.80;;;;;;5052874;23;20497;-66
2022/04/10 07:39:54;;;;;;;2.53;1.38;;;25.50;70.80;;;;;;5075507;23;20818;-65
2022/04/10 07:41:56;;;;;;;3.60;1.65;;;25.40;70.70;;;;;;5076418;23;20112;-65
2022/04/10 07:43:58;;;;;;;2.45;1.45;;;25.40;70.90;;;;;;5077808;23;20119;-65
2022/04/10 07:48:21;;;;;;;3.38;1.50;;;25.40;71.00;;;;;;5053734;23;20033;-64
2022/04/10 07:50:23;;;;;;;4.13;2.10;;;25.40;71.00;;;;;;5074346;23;20822;-64
2022/04/10 07:52:25;;;;;;;3.92;1.65;;;25.40;71.00;;;;;;5067778;23;20141;-66
2022/04/10 07:54:27;;;;;;;3.33;2.10;;;25.40;71.10;;;;;;5072094;23;20385;-66
2022/04/10 07:56:29;;;;;;;4.07;1.97;;;25.30;71.10;;;;;;5072745;23;20028;-66
2022/04/10 07:58:32;;;;;;;3.55;2.50;;;25.40;71.20;;;;;;5018263;23;20405;-65
2022/04/10 08:00:34;;;;;;;3.92;2.05;;;25.30;71.20;;;;;;5045308;23;20115;-64
2022/04/10 08:02:38;;;;;;;3.27;1.53;;;25.30;71.20;;;;;;5049964;23;20057;-68
2022/04/10 08:05:01;;;;;;;4.40;2.20;;;25.30;71.20;;;;;;5074655;23;20273;-67
2022/04/10 08:07:04;;;;;;;3.85;2.10;;;25.30;71.30;;;;;;5045223;23;20030;-66
2022/04/10 08:09:06;;;;;;;3.63;2.35;;;25.30;71.40;;;;;;5074052;23;20491;-65
2022/04/10 08:11:09;;;;;;;3.25;2.03;;;25.20;71.30;;;;;;5021491;23;20141;-66
2022/04/10 08:13:11;;;;;;;5.18;2.22;;;25.20;71.40;;;;;;5067697;23;20029;-66
2022/04/10 08:15:26;;;;;;;;;;;;;;;;;;;;;
2022/04/10 08:17:28;;;;;;;3.25;1.80;;;25.20;71.40;;;;;;5077833;23;20060;-67
2022/04/10 08:19:31;;;;;;;4.22;2.30;;;25.20;71.40;;;;;;5022988;23;20034;-66
2022/04/10 08:21:33;;;;;;;4.45;2.10;;;25.20;71.50;;;;;;5074984;23;20149;-65
2022/04/10 08:23:38;;;;;;;2.65;1.90;;;25.20;71.50;;;;;;5075335;23;20029;-66
2022/04/10 08:25:40;;;;;;;3.00;1.98;;;25.10;71.50;;;;;;5081684;23;20040;-64
2022/04/10 08:27:43;;;;;;;3.50;1.77;;;25.10;71.50;;;;;;5048000;23;20445;-64
2022/04/10 08:29:46;;;;;;;3.17;1.90;;;25.10;71.50;;;;;;5072663;23;20060;-65
2022/04/10 08:31:49;;;;;;;2.80;1.80;;;25.10;71.50;;;;;;5079906;23;20495;-65
2022/04/10 08:33:52;;;;;;;4.15;2.15;;;25.10;71.50;;;;;;5089138;23;20616;-66
2022/04/10 08:35:57;;;;;;;2.97;1.90;;;25.10;71.60;;;;;;5088076;23;20025;-64
2022/04/10 08:38:00;;;;;;;2.92;1.80;;;25.10;71.50;;;;;;5086711;23;20021;-66
2022/04/10 08:40:03;;;;;;;2.88;1.65;;;25.10;71.60;;;;;;5037645;23;20070;-65
2022/04/10 08:42:08;;;;;;;3.25;1.80;;;25.10;71.60;;;;;;5087056;23;20028;-65
2022/04/10 08:44:11;;;;;;;3.08;2.03;;;25.00;71.60;;;;;;5077992;23;20540;-66
2022/04/10 08:46:15;;;;;;;3.47;1.90;;;25.00;71.60;;;;;;5080143;23;20025;-66
2022/04/10 08:48:18;;;;;;;3.03;1.80;;;25.00;71.60;;;;;;5029918;23;20482;-67
2022/04/10 08:50:22;;;;;;;4.22;2.25;;;25.00;71.60;;;;;;5084960;23;20021;-65
2022/04/10 08:52:24;;;;;;;4.07;1.95;;;25.00;71.60;;;;;;5051754;23;20029;-64
2022/04/10 08:54:28;;;;;;;2.72;1.80;;;25.00;71.60;;;;;;5071251;23;20618;-65
2022/04/10 08:56:30;;;;;;;3.10;1.70;;;25.00;71.60;;;;;;5073423;23;20056;-65
2022/04/10 08:58:32;;;;;;;2.87;1.47;;;25.00;71.70;;;;;;5053150;23;20025;-67
2022/04/10 09:00:35;;;;;;;3.85;2.00;;;24.90;71.70;;;;;;5075872;23;20713;-65
2022/04/10 09:02:48;;;;;;;2.70;1.52;;;24.90;71.60;;;;;;5076452;23;20025;-66
2022/04/10 09:04:50;;;;;;;3.30;2.22;;;24.90;71.70;;;;;;5052794;23;20025;-67
2022/04/10 09:07:02;;;;;;;2.88;1.65;;;24.90;71.80;;;;;;5082999;23;20029;-66
2022/04/10 09:09:31;;;;;;;3.60;1.77;;;24.80;71.60;;;;;;5081791;23;20245;-67
2022/04/10 09:11:33;;;;;;;3.60;1.83;;;24.90;71.80;;;;;;5042973;23;20064;-66
2022/04/10 09:13:40;;;;;;;3.58;1.75;;;24.80;71.70;;;;;;5029047;23;20034;-67
2022/04/10 09:15:43;;;;;;;3.45;1.63;;;24.80;71.70;;;;;;5025898;23;20112;-66
2022/04/10 09:17:54;;;;;;;4.32;2.00;;;24.80;71.70;;;;;;5027983;23;20114;-66
2022/04/10 09:19:58;;;;;;;4.18;1.90;;;24.80;71.70;;;;;;5054600;23;20212;-66
2022/04/10 09:22:37;;;;;;;3.58;2.03;;;24.80;71.80;;;;;;5049412;23;20136;-65
2022/04/10 09:25:13;;;;;;;4.80;2.00;;;24.80;71.70;;;;;;5049690;23;20029;-66
2022/04/10 09:27:32;;;;;;;3.92;2.05;;;24.80;71.80;;;;;;5051617;23;20618;-65
2022/04/10 09:29:51;;;;;;;3.38;2.33;;;24.70;71.80;;;;;;4999664;23;20041;-65
2022/04/10 09:31:54;;;;;;;3.15;1.90;;;24.80;71.90;;;;;;5049302;23;20032;-65
2022/04/10 09:34:07;;;;;;;4.97;1.95;;;24.70;71.90;;;;;;5048695;23;20198;-66
2022/04/10 09:36:09;;;;;;;3.40;1.80;;;24.70;71.90;;;;;;5049689;23;20911;-64
2022/04/10 09:38:11;;;;;;;2.83;1.92;;;24.70;71.90;;;;;;5054832;23;20200;-65
2022/04/10 09:40:27;;;;;;;5.38;2.72;;;24.70;72.00;;;;;;5052128;23;20061;-64
2022/04/10 09:42:33;;;;;;;3.65;2.00;;;24.70;72.00;;;;;;5055309;23;20060;-66
2022/04/10 09:44:37;;;;;;;2.85;1.92;;;24.70;72.60;;;;;;5025198;23;20026;-66
2022/04/10 09:46:40;;;;;;;4.05;2.28;;;24.60;72.00;;;;;;5051511;23;20101;-65
2022/04/10 09:48:42;;;;;;;5.80;2.10;;;24.70;72.00;;;;;;5051331;23;20033;-66
2022/04/10 09:50:45;;;;;;;4.45;2.00;;;24.70;72.00;;;;;;5054632;23;20144;-65
2022/04/10 09:52:47;;;;;;;2.90;1.88;;;24.60;72.00;;;;;;5049215;23;20133;-66
2022/04/10 09:54:52;;;;;;;3.47;2.00;;;24.60;72.10;;;;;;5051826;23;20113;-65
2022/04/10 09:56:55;;;;;;;4.32;2.00;;;24.60;72.10;;;;;;5051253;23;20037;-65
2022/04/10 09:59:00;;;;;;;3.85;2.10;;;24.60;72.10;;;;;;5056694;23;20410;-66
2022/04/10 10:01:04;;;;;;;3.15;2.10;;;24.60;72.10;;;;;;5050162;23;20025;-65
2022/04/10 10:03:07;;;;;;;4.60;2.20;;;24.60;72.20;;;;;;5022684;23;20029;-64
2022/04/10 10:05:09;;;;;;;3.67;1.85;;;24.60;72.10;;;;;;5050441;23;20033;-65
2022/04/10 10:07:21;;;;;;;4.15;2.20;;;24.60;72.20;;;;;;5057709;23;20370;-65
2022/04/10 10:09:23;;;;;;;4.97;2.17;;;24.60;72.20;;;;;;5057199;23;20096;-65
2022/04/10 10:11:25;;;;;;;3.20;2.05;;;24.50;72.20;;;;;;5053491;23;20137;-64
2022/04/10 10:13:28;;;;;;;4.10;2.20;;;24.60;72.20;;;;;;5026751;23;20141;-66
2022/04/10 10:15:31;;;;;;;3.83;1.83;;;24.50;72.20;;;;;;5053855;23;20311;-65
2022/04/10 10:17:33;;;;;;;4.40;2.60;;;24.50;72.20;;;;;;5054084;23;20025;-65
2022/04/10 10:19:46;;;;;;;5.40;2.38;;;24.50;72.30;;;;;;5052423;23;20029;-65
2022/04/10 10:21:49;;;;;;;4.80;2.20;;;24.50;72.30;;;;;;5051718;23;20139;-64
2022/04/10 10:23:53;;;;;;;4.47;2.60;;;24.50;72.30;;;;;;5051771;23;20057;-65
2022/04/10 10:26:03;;;;;;;3.47;1.80;;;24.50;72.40;;;;;;5057055;23;20025;-65
2022/04/10 10:28:41;;;;;;;4.55;2.20;;;24.50;72.40;;;;;;5055253;23;20026;-65
2022/04/10 10:31:12;;;;;;;3.58;2.20;;;24.40;72.30;;;;;;5028999;23;20036;-65
2022/04/10 10:33:18;;;;;;;4.03;2.30;;;24.40;72.40;;;;;;5052641;23;20029;-65
2022/04/10 10:35:56;;;;;;;3.72;2.40;;;24.40;72.40;;;;;;5051903;23;20043;-65
2022/04/10 10:38:00;;;;;;;4.60;2.28;;;24.40;72.40;;;;;;4954887;23;20042;-65
2022/04/10 10:40:18;;;;;;;3.00;1.80;;;24.40;72.50;;;;;;5013908;23;20778;-65
2022/04/10 10:42:22;;;;;;;5.43;2.10;;;24.40;72.50;;;;;;5055847;23;20063;-65
2022/04/10 10:44:27;;;;;;;3.10;1.70;;;24.40;72.50;;;;;;5052828;23;20029;-65
2022/04/10 10:46:34;;;;;;;5.03;2.30;;;24.40;72.50;;;;;;5051063;23;20422;-65
2022/04/10 10:48:42;;;;;;;3.72;2.30;;;24.40;72.50;;;;;;5051015;23;20484;-65
2022/04/10 10:50:44;;;;;;;5.65;2.50;;;24.40;72.50;;;;;;5050237;23;20077;-65